Bryant, Wisconsin
Current Conditions -  °F | °C
As of 2:15 AM on Thursday 18 Dec 2014 (Local Time) from KAIG Reporting Station
Overcast Overcast  
Wind Chill: 15°   Ceiling: 1000
Heat Index: 22°   Visibility: 10mi
Dew Point: 20°   Wind: 6mph
Humidity: 91%   Direction: 340°NNW
Pressure: 30.25"   Gusts: NA
Location:  45.21°N, 89.02°W
Report Text: KAIG 180815Z AUTO 34005KT 10SM OVC010 M05/M07 A3025 RMK AO2 T10551067
Loading
Personal Weather Stations






























Interactive Weather Map New forecast layout! Learn more

10-Day Weather Forecast

Advertisements
Track Severe Weather on mobile